ANT701 CYXY-CYYC
Flight info
| Callsign | ANT701 |
|---|---|
| Flight time | 2h 1m |
| Altitude | 37000 |
| Route | KODEM4 VIGBO DCT EPSET DCT SPARD DCT EPLAN DCT MATIR Q925 ADVOX ADVOX9 |
| Aircraft | B738/M-SDE2E3FGHIRWXY/LB1 |
Departure
| Time | 2026-05-04 19:11 |
|---|---|
| Airport | Whitehorse / Erik Nielsen International Airport (CYXY) |
Arrival
| Time | 2026-05-04 21:12 |
|---|---|
| Airport | Calgary International Airport (CYYC) |
| Time | Latitude | Longitude | Altitude | Speed | Heading |
|---|---|---|---|---|---|
| 2026-05-04 19:02 | 60.71524 | -135.07627 | 2285 ft | 0 kts | 238° |
| 2026-05-04 19:05 | 60.71527 | -135.07619 | 2303 ft | 4 kts | 238° |
| 2026-05-04 19:05 | 60.71540 | -135.07572 | 2302 ft | 4 kts | 239° |
| 2026-05-04 19:05 | 60.71552 | -135.07532 | 2293 ft | 4 kts | 245° |
| 2026-05-04 19:06 | 60.71555 | -135.07487 | 2291 ft | 4 kts | 305° |
| 2026-05-04 19:06 | 60.71536 | -135.07455 | 2294 ft | 4 kts | 337° |
| 2026-05-04 19:06 | 60.71527 | -135.07447 | 2293 ft | 0 kts | 339° |
| 2026-05-04 19:08 | 60.71552 | -135.07467 | 2290 ft | 11 kts | 339° |
| 2026-05-04 19:09 | 60.71656 | -135.07549 | 2287 ft | 18 kts | 339° |
| 2026-05-04 19:09 | 60.71772 | -135.07638 | 2298 ft | 17 kts | 341° |
| 2026-05-04 19:09 | 60.71885 | -135.07717 | 2290 ft | 17 kts | 337° |
| 2026-05-04 19:09 | 60.71991 | -135.07808 | 2295 ft | 16 kts | 338° |
| 2026-05-04 19:10 | 60.72096 | -135.07864 | 2282 ft | 16 kts | 13° |
| 2026-05-04 19:10 | 60.72145 | -135.07687 | 2282 ft | 15 kts | 105° |
| 2026-05-04 19:10 | 60.72056 | -135.07582 | 2281 ft | 21 kts | 158° |
| 2026-05-04 19:10 | 60.71724 | -135.07326 | 2299 ft | 83 kts | 159° |
| 2026-05-04 19:11 | 60.70982 | -135.06750 | 2303 ft | 141 kts | 159° |
| 2026-05-04 19:11 | 60.69972 | -135.05882 | 2602 ft | 166 kts | 156° |
| 2026-05-04 19:11 | 60.68837 | -135.04908 | 3063 ft | 187 kts | 159° |
| 2026-05-04 19:11 | 60.67590 | -135.03980 | 3873 ft | 195 kts | 158° |
| 2026-05-04 19:12 | 60.66246 | -135.02923 | 4127 ft | 222 kts | 164° |
| 2026-05-04 19:12 | 60.63488 | -135.00722 | 5491 ft | 219 kts | 166° |
| 2026-05-04 19:12 | 60.62043 | -135.00531 | 6409 ft | 210 kts | 187° |
| 2026-05-04 19:13 | 60.60643 | -134.99745 | 6667 ft | 232 kts | 127° |
| 2026-05-04 19:13 | 60.60209 | -134.96445 | 6942 ft | 262 kts | 88° |
| 2026-05-04 19:13 | 60.60284 | -134.92644 | 7445 ft | 275 kts | 96° |
| 2026-05-04 19:13 | 60.60176 | -134.88749 | 8157 ft | 282 kts | 93° |
| 2026-05-04 19:14 | 60.59905 | -134.84777 | 8928 ft | 285 kts | 107° |
| 2026-05-04 19:14 | 60.59341 | -134.80877 | 9696 ft | 291 kts | 107° |
| 2026-05-04 19:14 | 60.58779 | -134.76877 | 10362 ft | 301 kts | 107° |
| 2026-05-04 19:14 | 60.58202 | -134.72601 | 10587 ft | 325 kts | 105° |
| 2026-05-04 19:15 | 60.57606 | -134.68062 | 11106 ft | 336 kts | 105° |
| 2026-05-04 19:15 | 60.56999 | -134.63421 | 11779 ft | 343 kts | 105° |
| 2026-05-04 19:15 | 60.56385 | -134.58698 | 12514 ft | 347 kts | 105° |
| 2026-05-04 19:15 | 60.55760 | -134.53918 | 13226 ft | 353 kts | 105° |
| 2026-05-04 19:16 | 60.55117 | -134.49061 | 13877 ft | 359 kts | 107° |
| 2026-05-04 19:16 | 60.54010 | -134.44517 | 14459 ft | 362 kts | 130° |
| 2026-05-04 19:16 | 60.52184 | -134.41003 | 15120 ft | 362 kts | 144° |
| 2026-05-04 19:16 | 60.50163 | -134.37915 | 15729 ft | 366 kts | 146° |
| 2026-05-04 19:17 | 60.48092 | -134.34834 | 16324 ft | 372 kts | 146° |
| 2026-05-04 19:17 | 60.46013 | -134.31761 | 16934 ft | 376 kts | 146° |
| 2026-05-04 19:17 | 60.43885 | -134.28611 | 17538 ft | 381 kts | 146° |
| 2026-05-04 19:17 | 60.41739 | -134.25416 | 18138 ft | 385 kts | 146° |
| 2026-05-04 19:18 | 60.39574 | -134.22178 | 18707 ft | 390 kts | 146° |
| 2026-05-04 19:18 | 60.37385 | -134.18896 | 19259 ft | 394 kts | 146° |
| 2026-05-04 19:18 | 60.35173 | -134.15578 | 19815 ft | 397 kts | 146° |
| 2026-05-04 19:18 | 60.32944 | -134.12240 | 20358 ft | 400 kts | 146° |
| 2026-05-04 19:19 | 60.30696 | -134.08883 | 20841 ft | 405 kts | 147° |
| 2026-05-04 19:19 | 60.28427 | -134.05488 | 21332 ft | 409 kts | 147° |
| 2026-05-04 19:19 | 60.26135 | -134.02061 | 21856 ft | 412 kts | 147° |
| 2026-05-04 19:19 | 60.23819 | -133.98607 | 22345 ft | 416 kts | 147° |
| 2026-05-04 19:20 | 60.21477 | -133.95125 | 22841 ft | 419 kts | 147° |
| 2026-05-04 19:20 | 60.19150 | -133.91674 | 23335 ft | 423 kts | 147° |
| 2026-05-04 19:20 | 60.16773 | -133.88154 | 23797 ft | 426 kts | 147° |
| 2026-05-04 19:20 | 60.14373 | -133.84604 | 24140 ft | 431 kts | 147° |
| 2026-05-04 19:21 | 60.11945 | -133.81021 | 24541 ft | 434 kts | 148° |
| 2026-05-04 19:21 | 60.09505 | -133.77425 | 24980 ft | 436 kts | 148° |
| 2026-05-04 19:21 | 60.07053 | -133.73817 | 25387 ft | 438 kts | 148° |
| 2026-05-04 19:21 | 60.04583 | -133.70193 | 25781 ft | 441 kts | 148° |
| 2026-05-04 19:22 | 60.02090 | -133.66541 | 26169 ft | 444 kts | 148° |
| 2026-05-04 19:22 | 59.99586 | -133.62881 | 26549 ft | 447 kts | 148° |
| 2026-05-04 19:22 | 59.97075 | -133.59218 | 26921 ft | 449 kts | 148° |
| 2026-05-04 19:22 | 59.94546 | -133.55526 | 27288 ft | 452 kts | 148° |
| 2026-05-04 19:23 | 59.91998 | -133.51818 | 27633 ft | 455 kts | 148° |
| 2026-05-04 19:23 | 59.89425 | -133.48083 | 27905 ft | 459 kts | 148° |
| 2026-05-04 19:23 | 59.86862 | -133.44376 | 28243 ft | 463 kts | 148° |
| 2026-05-04 19:23 | 59.84256 | -133.40607 | 28623 ft | 465 kts | 149° |
| 2026-05-04 19:24 | 59.81636 | -133.36839 | 29010 ft | 466 kts | 149° |
| 2026-05-04 19:24 | 59.78990 | -133.33032 | 29356 ft | 468 kts | 149° |
| 2026-05-04 19:24 | 59.76340 | -133.29241 | 29681 ft | 471 kts | 149° |
| 2026-05-04 19:24 | 59.73670 | -133.25396 | 30026 ft | 473 kts | 149° |
| 2026-05-04 19:25 | 59.71010 | -133.21600 | 30473 ft | 471 kts | 149° |
| 2026-05-04 19:25 | 59.68349 | -133.17818 | 30822 ft | 470 kts | 149° |
| 2026-05-04 19:25 | 59.65681 | -133.14031 | 31014 ft | 474 kts | 149° |
| 2026-05-04 19:25 | 59.62985 | -133.10209 | 31149 ft | 479 kts | 149° |
| 2026-05-04 19:26 | 59.60276 | -133.06366 | 31449 ft | 479 kts | 149° |
| 2026-05-04 19:26 | 59.57569 | -133.02539 | 31742 ft | 480 kts | 149° |
| 2026-05-04 19:26 | 59.54845 | -132.98690 | 31954 ft | 482 kts | 149° |
| 2026-05-04 19:26 | 59.52146 | -132.94886 | 32188 ft | 484 kts | 149° |
| 2026-05-04 19:27 | 59.49410 | -132.91036 | 32521 ft | 483 kts | 150° |
| 2026-05-04 19:27 | 59.46688 | -132.87212 | 33029 ft | 477 kts | 150° |
| 2026-05-04 19:27 | 59.43983 | -132.83423 | 33322 ft | 477 kts | 150° |
| 2026-05-04 19:27 | 59.41271 | -132.79647 | 33454 ft | 480 kts | 149° |
| 2026-05-04 19:28 | 59.38682 | -132.75430 | 33585 ft | 491 kts | 135° |
| 2026-05-04 19:28 | 59.36681 | -132.69936 | 33903 ft | 495 kts | 126° |
| 2026-05-04 19:28 | 59.34836 | -132.64247 | 34278 ft | 492 kts | 126° |
| 2026-05-04 19:28 | 59.32992 | -132.58599 | 34485 ft | 493 kts | 126° |
| 2026-05-04 19:29 | 59.31124 | -132.52950 | 34634 ft | 494 kts | 127° |
| 2026-05-04 19:29 | 59.29238 | -132.47314 | 34843 ft | 495 kts | 127° |
| 2026-05-04 19:29 | 59.27345 | -132.41704 | 35099 ft | 494 kts | 127° |
| 2026-05-04 19:29 | 59.25445 | -132.36109 | 35341 ft | 493 kts | 128° |
| 2026-05-04 19:30 | 59.23543 | -132.30527 | 35506 ft | 494 kts | 127° |
| 2026-05-04 19:30 | 59.21654 | -132.25002 | 35635 ft | 496 kts | 127° |
| 2026-05-04 19:30 | 59.19735 | -132.19403 | 35825 ft | 497 kts | 128° |
| 2026-05-04 19:30 | 59.17816 | -132.13809 | 36060 ft | 496 kts | 128° |
| 2026-05-04 19:31 | 59.15892 | -132.08211 | 36284 ft | 495 kts | 128° |
| 2026-05-04 19:31 | 59.13969 | -132.02632 | 36455 ft | 496 kts | 128° |
| 2026-05-04 19:31 | 59.12044 | -131.97051 | 36602 ft | 497 kts | 128° |
| 2026-05-04 19:32 | 59.08158 | -131.85841 | 36839 ft | 500 kts | 128° |
| 2026-05-04 19:32 | 59.06211 | -131.80244 | 37031 ft | 499 kts | 128° |
| 2026-05-04 19:32 | 59.04262 | -131.74655 | 37163 ft | 500 kts | 128° |
| 2026-05-04 19:33 | 59.00350 | -131.63481 | 37197 ft | 505 kts | 128° |
| 2026-05-04 19:33 | 58.96394 | -131.52227 | 37201 ft | 504 kts | 128° |
| 2026-05-04 19:34 | 58.92436 | -131.41019 | 37198 ft | 504 kts | 128° |
| 2026-05-04 19:34 | 58.88476 | -131.29857 | 37170 ft | 503 kts | 128° |
| 2026-05-04 19:35 | 58.84511 | -131.18737 | 37176 ft | 502 kts | 128° |
| 2026-05-04 19:35 | 58.80540 | -131.07654 | 37179 ft | 501 kts | 128° |
| 2026-05-04 19:36 | 58.76602 | -130.96584 | 37194 ft | 499 kts | 128° |
| 2026-05-04 19:36 | 58.72654 | -130.85715 | 37173 ft | 499 kts | 128° |
| 2026-05-04 19:37 | 58.68656 | -130.74778 | 37172 ft | 499 kts | 128° |
| 2026-05-04 19:37 | 58.64662 | -130.63852 | 37170 ft | 500 kts | 128° |
| 2026-05-04 19:38 | 58.60654 | -130.52917 | 37178 ft | 502 kts | 128° |
| 2026-05-04 19:38 | 58.56620 | -130.41960 | 37177 ft | 503 kts | 128° |
| 2026-05-04 19:39 | 58.52571 | -130.31016 | 37158 ft | 504 kts | 128° |
| 2026-05-04 19:39 | 58.48532 | -130.20148 | 37142 ft | 504 kts | 128° |
| 2026-05-04 19:40 | 58.44451 | -130.09210 | 37148 ft | 506 kts | 128° |
| 2026-05-04 19:40 | 58.41067 | -129.99982 | 37146 ft | 507 kts | 125° |
| 2026-05-04 19:41 | 58.37323 | -129.88659 | 37156 ft | 509 kts | 123° |
| 2026-05-04 19:41 | 58.34168 | -129.78846 | 37167 ft | 509 kts | 123° |
| 2026-05-04 19:42 | 58.30449 | -129.67391 | 37172 ft | 509 kts | 124° |
| 2026-05-04 19:42 | 58.26684 | -129.55996 | 37163 ft | 507 kts | 124° |
| 2026-05-04 19:43 | 58.22908 | -129.44657 | 37174 ft | 508 kts | 124° |
| 2026-05-04 19:43 | 58.19277 | -129.33781 | 37154 ft | 507 kts | 124° |
| 2026-05-04 19:44 | 58.15493 | -129.22500 | 37132 ft | 507 kts | 124° |
| 2026-05-04 19:44 | 58.11705 | -129.11267 | 37160 ft | 506 kts | 124° |
| 2026-05-04 19:45 | 58.08027 | -129.00416 | 37129 ft | 506 kts | 124° |
| 2026-05-04 19:45 | 58.04226 | -128.89253 | 37120 ft | 505 kts | 124° |
| 2026-05-04 19:46 | 58.00414 | -128.78109 | 37120 ft | 505 kts | 124° |
| 2026-05-04 19:46 | 57.96634 | -128.67108 | 37132 ft | 505 kts | 124° |
| 2026-05-04 19:47 | 57.92905 | -128.56305 | 37138 ft | 505 kts | 124° |
| 2026-05-04 19:47 | 57.89065 | -128.45233 | 37120 ft | 505 kts | 124° |
| 2026-05-04 19:48 | 57.85219 | -128.34195 | 37111 ft | 505 kts | 124° |
| 2026-05-04 19:48 | 57.81385 | -128.23243 | 37120 ft | 505 kts | 124° |
| 2026-05-04 19:49 | 57.77517 | -128.12241 | 37123 ft | 506 kts | 124° |
| 2026-05-04 19:49 | 57.73625 | -128.01224 | 37114 ft | 506 kts | 124° |
| 2026-05-04 19:50 | 57.69722 | -127.90230 | 37118 ft | 507 kts | 124° |
| 2026-05-04 19:50 | 57.65808 | -127.79248 | 37107 ft | 507 kts | 124° |
| 2026-05-04 19:51 | 57.61906 | -127.68353 | 37107 ft | 508 kts | 124° |
| 2026-05-04 19:51 | 57.57967 | -127.57404 | 37117 ft | 508 kts | 124° |
| 2026-05-04 19:52 | 57.54021 | -127.46484 | 37112 ft | 508 kts | 124° |
| 2026-05-04 19:52 | 57.50063 | -127.35584 | 37119 ft | 509 kts | 124° |
| 2026-05-04 19:53 | 57.46085 | -127.24682 | 37122 ft | 510 kts | 124° |
| 2026-05-04 19:53 | 57.42086 | -127.13769 | 37119 ft | 511 kts | 123° |
| 2026-05-04 19:54 | 57.38070 | -127.02853 | 37111 ft | 512 kts | 124° |
| 2026-05-04 19:54 | 57.34047 | -126.91971 | 37109 ft | 513 kts | 124° |
| 2026-05-04 19:55 | 57.29998 | -126.81069 | 37099 ft | 513 kts | 124° |
| 2026-05-04 19:55 | 57.25965 | -126.70279 | 37092 ft | 514 kts | 124° |
| 2026-05-04 19:56 | 57.21895 | -126.59414 | 37102 ft | 514 kts | 123° |
| 2026-05-04 19:56 | 57.17817 | -126.48591 | 37100 ft | 512 kts | 124° |
| 2026-05-04 19:57 | 57.13751 | -126.37820 | 37130 ft | 512 kts | 123° |
| 2026-05-04 19:57 | 57.09682 | -126.27111 | 37110 ft | 514 kts | 123° |
| 2026-05-04 19:58 | 57.05561 | -126.16325 | 37092 ft | 515 kts | 124° |
| 2026-05-04 19:58 | 57.01446 | -126.05553 | 37106 ft | 514 kts | 123° |
| 2026-05-04 19:59 | 56.97339 | -125.94882 | 37089 ft | 511 kts | 124° |
| 2026-05-04 19:59 | 56.93220 | -125.84261 | 37088 ft | 510 kts | 123° |
| 2026-05-04 20:00 | 56.89111 | -125.73676 | 37090 ft | 509 kts | 124° |
| 2026-05-04 20:00 | 56.85034 | -125.63209 | 37097 ft | 508 kts | 123° |
| 2026-05-04 20:01 | 56.80891 | -125.52637 | 37097 ft | 508 kts | 124° |
| 2026-05-04 20:01 | 56.76785 | -125.42187 | 37093 ft | 513 kts | 123° |
| 2026-05-04 20:02 | 56.72590 | -125.31570 | 37087 ft | 519 kts | 123° |
| 2026-05-04 20:02 | 56.68346 | -125.20886 | 37088 ft | 522 kts | 123° |
| 2026-05-04 20:03 | 56.64070 | -125.10166 | 37075 ft | 524 kts | 123° |
| 2026-05-04 20:03 | 56.59806 | -124.99517 | 37065 ft | 516 kts | 123° |
| 2026-05-04 20:04 | 56.55585 | -124.89023 | 37079 ft | 515 kts | 124° |
| 2026-05-04 20:04 | 56.51336 | -124.78539 | 37071 ft | 516 kts | 124° |
| 2026-05-04 20:05 | 56.47073 | -124.68049 | 37074 ft | 517 kts | 124° |
| 2026-05-04 20:05 | 56.42853 | -124.57640 | 37060 ft | 515 kts | 124° |
| 2026-05-04 20:06 | 56.38613 | -124.47262 | 37076 ft | 513 kts | 124° |
| 2026-05-04 20:06 | 56.34366 | -124.36936 | 37069 ft | 512 kts | 124° |
| 2026-05-04 20:07 | 56.30114 | -124.26637 | 37074 ft | 512 kts | 124° |
| 2026-05-04 20:07 | 56.25847 | -124.16361 | 37069 ft | 514 kts | 124° |
| 2026-05-04 20:08 | 56.21572 | -124.06079 | 37064 ft | 513 kts | 124° |
| 2026-05-04 20:08 | 56.17277 | -123.95788 | 37066 ft | 515 kts | 124° |
| 2026-05-04 20:09 | 56.12964 | -123.85510 | 37068 ft | 516 kts | 124° |
| 2026-05-04 20:09 | 56.08659 | -123.75301 | 37082 ft | 516 kts | 124° |
| 2026-05-04 20:10 | 56.04323 | -123.65057 | 37110 ft | 517 kts | 123° |
| 2026-05-04 20:10 | 55.99984 | -123.54772 | 37094 ft | 518 kts | 123° |
| 2026-05-04 20:11 | 55.95603 | -123.44491 | 37097 ft | 520 kts | 123° |
| 2026-05-04 20:11 | 55.91183 | -123.34235 | 37121 ft | 521 kts | 124° |
| 2026-05-04 20:12 | 55.86757 | -123.23992 | 37094 ft | 521 kts | 123° |
| 2026-05-04 20:12 | 55.82330 | -123.13761 | 37128 ft | 523 kts | 123° |
| 2026-05-04 20:13 | 55.77887 | -123.03516 | 37105 ft | 522 kts | 123° |
| 2026-05-04 20:13 | 55.73438 | -122.93309 | 37092 ft | 522 kts | 124° |
| 2026-05-04 20:14 | 55.69025 | -122.83224 | 37122 ft | 518 kts | 123° |
| 2026-05-04 20:14 | 55.64600 | -122.73152 | 37113 ft | 516 kts | 123° |
| 2026-05-04 20:15 | 55.60186 | -122.63146 | 37130 ft | 515 kts | 123° |
| 2026-05-04 20:15 | 55.55774 | -122.53188 | 37125 ft | 514 kts | 124° |
| 2026-05-04 20:16 | 55.51386 | -122.43324 | 37133 ft | 514 kts | 124° |
| 2026-05-04 20:16 | 55.46956 | -122.33416 | 37133 ft | 515 kts | 125° |
| 2026-05-04 20:17 | 55.42543 | -122.23477 | 37142 ft | 514 kts | 122° |
| 2026-05-04 20:17 | 55.38373 | -122.13279 | 37137 ft | 514 kts | 120° |
| 2026-05-04 20:18 | 55.34247 | -122.02997 | 37196 ft | 516 kts | 120° |
| 2026-05-04 20:18 | 55.30082 | -121.92715 | 37147 ft | 518 kts | 120° |
| 2026-05-04 20:19 | 55.25849 | -121.82429 | 37129 ft | 520 kts | 121° |
| 2026-05-04 20:19 | 55.21584 | -121.72153 | 37125 ft | 521 kts | 121° |
| 2026-05-04 20:20 | 55.17316 | -121.61883 | 37135 ft | 522 kts | 121° |
| 2026-05-04 20:20 | 55.13059 | -121.51686 | 37121 ft | 522 kts | 121° |
| 2026-05-04 20:21 | 55.08768 | -121.41438 | 37140 ft | 523 kts | 121° |
| 2026-05-04 20:21 | 55.02295 | -121.26049 | 37156 ft | 525 kts | 121° |
| 2026-05-04 20:22 | 54.97972 | -121.15833 | 37128 ft | 524 kts | 121° |
| 2026-05-04 20:22 | 54.93652 | -121.05666 | 37149 ft | 520 kts | 121° |
| 2026-05-04 20:23 | 54.89340 | -120.95579 | 37148 ft | 519 kts | 121° |
| 2026-05-04 20:23 | 54.85029 | -120.85527 | 37154 ft | 518 kts | 121° |
| 2026-05-04 20:24 | 54.80735 | -120.75543 | 37139 ft | 519 kts | 121° |
| 2026-05-04 20:24 | 54.76448 | -120.65622 | 37150 ft | 518 kts | 121° |
| 2026-05-04 20:25 | 54.72127 | -120.55639 | 37148 ft | 519 kts | 120° |
| 2026-05-04 20:25 | 54.67792 | -120.45658 | 37155 ft | 519 kts | 121° |
| 2026-05-04 20:26 | 54.64162 | -120.37380 | 37154 ft | 520 kts | 121° |
| 2026-05-04 20:26 | 54.59067 | -120.25784 | 37144 ft | 523 kts | 121° |
| 2026-05-04 20:27 | 54.55377 | -120.17411 | 37149 ft | 524 kts | 121° |
| 2026-05-04 20:27 | 54.50976 | -120.07455 | 37150 ft | 526 kts | 121° |
| 2026-05-04 20:28 | 54.46519 | -119.97430 | 37150 ft | 528 kts | 121° |
| 2026-05-04 20:28 | 54.42045 | -119.87399 | 37143 ft | 529 kts | 121° |
| 2026-05-04 20:29 | 54.37575 | -119.77393 | 37135 ft | 528 kts | 121° |
| 2026-05-04 20:29 | 54.33133 | -119.67385 | 37127 ft | 528 kts | 121° |
| 2026-05-04 20:30 | 54.28643 | -119.57444 | 37136 ft | 527 kts | 122° |
| 2026-05-04 20:30 | 54.24131 | -119.47576 | 37173 ft | 526 kts | 121° |
| 2026-05-04 20:31 | 54.19623 | -119.37708 | 37152 ft | 526 kts | 121° |
| 2026-05-04 20:31 | 54.15148 | -119.27909 | 37157 ft | 527 kts | 121° |
| 2026-05-04 20:32 | 54.10631 | -119.18029 | 37142 ft | 528 kts | 121° |
| 2026-05-04 20:32 | 54.06093 | -119.08184 | 37138 ft | 527 kts | 121° |
| 2026-05-04 20:33 | 54.01581 | -118.98385 | 37149 ft | 525 kts | 121° |
| 2026-05-04 20:33 | 53.97053 | -118.88650 | 37141 ft | 523 kts | 121° |
| 2026-05-04 20:34 | 53.92539 | -118.78982 | 37138 ft | 522 kts | 121° |
| 2026-05-04 20:34 | 53.88026 | -118.69326 | 37158 ft | 523 kts | 121° |
| 2026-05-04 20:35 | 53.83510 | -118.59702 | 37149 ft | 524 kts | 121° |
| 2026-05-04 20:35 | 53.78964 | -118.50050 | 37148 ft | 525 kts | 121° |
| 2026-05-04 20:36 | 53.74396 | -118.40392 | 37143 ft | 526 kts | 121° |
| 2026-05-04 20:36 | 53.69816 | -118.30742 | 37142 ft | 527 kts | 121° |
| 2026-05-04 20:37 | 53.65251 | -118.21170 | 37141 ft | 527 kts | 121° |
| 2026-05-04 20:37 | 53.60649 | -118.11556 | 37139 ft | 526 kts | 121° |
| 2026-05-04 20:38 | 53.56282 | -118.02468 | 37144 ft | 526 kts | 121° |
| 2026-05-04 20:38 | 53.51679 | -117.92890 | 37179 ft | 526 kts | 121° |
| 2026-05-04 20:39 | 53.47059 | -117.83336 | 37127 ft | 525 kts | 121° |
| 2026-05-04 20:39 | 53.42445 | -117.73868 | 37141 ft | 522 kts | 121° |
| 2026-05-04 20:40 | 53.37863 | -117.64480 | 37139 ft | 518 kts | 121° |
| 2026-05-04 20:40 | 53.33304 | -117.55161 | 37159 ft | 516 kts | 121° |
| 2026-05-04 20:41 | 53.28746 | -117.45889 | 37160 ft | 515 kts | 121° |
| 2026-05-04 20:41 | 53.24221 | -117.36716 | 37155 ft | 514 kts | 121° |
| 2026-05-04 20:42 | 53.19669 | -117.27517 | 37157 ft | 514 kts | 121° |
| 2026-05-04 20:42 | 53.15104 | -117.18324 | 37154 ft | 514 kts | 121° |
| 2026-05-04 20:43 | 53.10524 | -117.09134 | 37161 ft | 516 kts | 121° |
| 2026-05-04 20:43 | 53.05922 | -116.99940 | 37156 ft | 517 kts | 122° |
| 2026-05-04 20:44 | 53.01306 | -116.90751 | 37160 ft | 518 kts | 122° |
| 2026-05-04 20:44 | 52.96680 | -116.81574 | 37160 ft | 519 kts | 122° |
| 2026-05-04 20:45 | 52.92035 | -116.72393 | 37221 ft | 520 kts | 122° |
| 2026-05-04 20:45 | 52.87367 | -116.63205 | 37159 ft | 521 kts | 122° |
| 2026-05-04 20:46 | 52.82697 | -116.54044 | 37148 ft | 520 kts | 122° |
| 2026-05-04 20:46 | 52.78066 | -116.44979 | 37153 ft | 519 kts | 122° |
| 2026-05-04 20:47 | 52.73396 | -116.35894 | 37141 ft | 517 kts | 122° |
| 2026-05-04 20:47 | 52.68734 | -116.26846 | 37127 ft | 516 kts | 122° |
| 2026-05-04 20:48 | 52.64083 | -116.17851 | 37133 ft | 515 kts | 123° |
| 2026-05-04 20:48 | 52.59437 | -116.08893 | 37117 ft | 514 kts | 123° |
| 2026-05-04 20:49 | 52.54798 | -115.99981 | 37106 ft | 513 kts | 123° |
| 2026-05-04 20:49 | 52.50038 | -115.91327 | 37117 ft | 514 kts | 126° |
| 2026-05-04 20:50 | 52.45102 | -115.82832 | 37109 ft | 514 kts | 127° |
| 2026-05-04 20:50 | 52.40171 | -115.74331 | 37104 ft | 515 kts | 126° |
| 2026-05-04 20:51 | 52.35254 | -115.65799 | 37106 ft | 514 kts | 126° |
| 2026-05-04 20:51 | 52.30343 | -115.57272 | 37095 ft | 515 kts | 126° |
| 2026-05-04 20:52 | 52.25426 | -115.48760 | 37140 ft | 516 kts | 127° |
| 2026-05-04 20:52 | 52.20473 | -115.40234 | 37094 ft | 518 kts | 127° |
| 2026-05-04 20:53 | 52.15505 | -115.31713 | 37081 ft | 519 kts | 127° |
| 2026-05-04 20:53 | 52.10561 | -115.23258 | 37085 ft | 519 kts | 128° |
| 2026-05-04 20:54 | 52.05595 | -115.14790 | 37072 ft | 519 kts | 128° |
| 2026-05-04 20:54 | 52.00452 | -115.06509 | 36996 ft | 525 kts | 137° |
| 2026-05-04 20:55 | 51.97465 | -115.03036 | 36636 ft | 528 kts | 143° |
| 2026-05-04 20:55 | 51.94470 | -114.99851 | 36273 ft | 523 kts | 143° |
| 2026-05-04 20:55 | 51.91748 | -114.96906 | 35927 ft | 519 kts | 142° |
| 2026-05-04 20:55 | 51.88807 | -114.93625 | 35546 ft | 515 kts | 141° |
| 2026-05-04 20:56 | 51.86181 | -114.90646 | 35215 ft | 512 kts | 141° |
| 2026-05-04 20:56 | 51.83406 | -114.87489 | 34846 ft | 509 kts | 141° |
| 2026-05-04 20:56 | 51.80518 | -114.84223 | 34481 ft | 507 kts | 141° |
| 2026-05-04 20:56 | 51.77627 | -114.80963 | 34099 ft | 504 kts | 141° |
| 2026-05-04 20:57 | 51.74857 | -114.77836 | 33694 ft | 502 kts | 141° |
| 2026-05-04 20:57 | 51.72024 | -114.74636 | 33300 ft | 498 kts | 141° |
| 2026-05-04 20:57 | 51.69180 | -114.71432 | 32931 ft | 495 kts | 141° |
| 2026-05-04 20:57 | 51.66356 | -114.68271 | 32587 ft | 491 kts | 142° |
| 2026-05-04 20:58 | 51.63550 | -114.65162 | 32229 ft | 488 kts | 142° |
| 2026-05-04 20:58 | 51.61066 | -114.62415 | 31903 ft | 485 kts | 142° |
| 2026-05-04 20:58 | 51.58303 | -114.59360 | 31548 ft | 482 kts | 142° |
| 2026-05-04 20:58 | 51.55574 | -114.56342 | 31108 ft | 481 kts | 142° |
| 2026-05-04 20:59 | 51.52834 | -114.53311 | 30896 ft | 474 kts | 142° |
| 2026-05-04 20:59 | 51.50163 | -114.50351 | 30629 ft | 469 kts | 142° |
| 2026-05-04 20:59 | 51.47496 | -114.47391 | 30384 ft | 464 kts | 142° |
| 2026-05-04 20:59 | 51.44857 | -114.44458 | 30131 ft | 458 kts | 142° |
| 2026-05-04 21:00 | 51.42216 | -114.41519 | 29795 ft | 456 kts | 142° |
| 2026-05-04 21:00 | 51.39642 | -114.38645 | 29014 ft | 461 kts | 143° |
| 2026-05-04 21:00 | 51.36972 | -114.35643 | 27693 ft | 476 kts | 143° |
| 2026-05-04 21:00 | 51.34372 | -114.32354 | 26832 ft | 472 kts | 131° |
| 2026-05-04 21:01 | 51.32233 | -114.28526 | 26527 ft | 452 kts | 123° |
| 2026-05-04 21:01 | 51.30336 | -114.24495 | 25412 ft | 460 kts | 124° |
| 2026-05-04 21:01 | 51.27991 | -114.20942 | 24436 ft | 471 kts | 144° |
| 2026-05-04 21:01 | 51.25068 | -114.18556 | 23465 ft | 474 kts | 162° |
| 2026-05-04 21:02 | 51.21893 | -114.17264 | 22370 ft | 471 kts | 174° |
| 2026-05-04 21:02 | 51.18643 | -114.16892 | 21316 ft | 466 kts | 184° |
| 2026-05-04 21:02 | 51.15442 | -114.16822 | 20292 ft | 464 kts | 184° |
| 2026-05-04 21:02 | 51.12256 | -114.16721 | 19304 ft | 463 kts | 183° |
| 2026-05-04 21:03 | 51.09045 | -114.16564 | 18321 ft | 460 kts | 182° |
| 2026-05-04 21:03 | 51.05863 | -114.16379 | 17225 ft | 456 kts | 181° |
| 2026-05-04 21:03 | 51.02731 | -114.16246 | 16160 ft | 451 kts | 183° |
| 2026-05-04 21:03 | 50.99612 | -114.16258 | 15129 ft | 444 kts | 184° |
| 2026-05-04 21:04 | 50.96544 | -114.16305 | 14143 ft | 438 kts | 183° |
| 2026-05-04 21:04 | 50.93514 | -114.16326 | 13053 ft | 432 kts | 182° |
| 2026-05-04 21:04 | 50.90537 | -114.16309 | 11982 ft | 425 kts | 180° |
| 2026-05-04 21:04 | 50.87671 | -114.15437 | 10911 ft | 421 kts | 157° |
| 2026-05-04 21:05 | 50.85271 | -114.12972 | 10407 ft | 399 kts | 135° |
| 2026-05-04 21:05 | 50.83524 | -114.09776 | 10089 ft | 373 kts | 122° |
| 2026-05-04 21:05 | 50.82352 | -114.06145 | 8972 ft | 370 kts | 106° |
| 2026-05-04 21:05 | 50.81717 | -114.02242 | 7945 ft | 364 kts | 94° |
| 2026-05-04 21:06 | 50.81719 | -113.98347 | 7040 ft | 353 kts | 73° |
| 2026-05-04 21:06 | 50.82720 | -113.95015 | 6785 ft | 317 kts | 43° |
| 2026-05-04 21:06 | 50.84417 | -113.93244 | 6658 ft | 285 kts | 13° |
| 2026-05-04 21:06 | 50.86312 | -113.93279 | 6540 ft | 262 kts | 339° |
| 2026-05-04 21:07 | 50.87784 | -113.94778 | 6531 ft | 244 kts | 324° |
| 2026-05-04 21:07 | 50.89125 | -113.96183 | 6498 ft | 224 kts | 334° |
| 2026-05-04 21:07 | 50.90496 | -113.97146 | 6507 ft | 206 kts | 341° |
| 2026-05-04 21:07 | 50.91841 | -113.97787 | 6493 ft | 200 kts | 346° |
| 2026-05-04 21:08 | 50.93186 | -113.98230 | 6502 ft | 197 kts | 350° |
| 2026-05-04 21:08 | 50.94535 | -113.98542 | 6505 ft | 200 kts | 353° |
| 2026-05-04 21:08 | 50.95921 | -113.98759 | 6499 ft | 200 kts | 355° |
| 2026-05-04 21:08 | 50.97333 | -113.98941 | 6365 ft | 207 kts | 355° |
| 2026-05-04 21:09 | 50.98787 | -113.99024 | 6102 ft | 210 kts | 358° |
| 2026-05-04 21:09 | 51.00223 | -113.99032 | 5803 ft | 202 kts | 359° |
| 2026-05-04 21:09 | 51.01580 | -113.99030 | 5523 ft | 189 kts | 359° |
| 2026-05-04 21:09 | 51.02698 | -113.99028 | 5309 ft | 176 kts | 359° |
| 2026-05-04 21:10 | 51.03823 | -113.99028 | 5089 ft | 164 kts | 359° |
| 2026-05-04 21:10 | 51.04858 | -113.99030 | 4880 ft | 151 kts | 359° |
| 2026-05-04 21:10 | 51.05878 | -113.99029 | 4702 ft | 146 kts | 358° |
| 2026-05-04 21:10 | 51.06538 | -113.99027 | 4616 ft | 140 kts | 358° |
| 2026-05-04 21:11 | 51.07763 | -113.99030 | 4287 ft | 127 kts | 359° |
| 2026-05-04 21:11 | 51.08646 | -113.99029 | 4101 ft | 133 kts | 357° |
| 2026-05-04 21:11 | 51.09568 | -113.99027 | 3933 ft | 132 kts | 358° |
| 2026-05-04 21:11 | 51.10462 | -113.99020 | 3732 ft | 126 kts | 355° |
| 2026-05-04 21:12 | 51.11344 | -113.99043 | 3581 ft | 123 kts | 360° |
| 2026-05-04 21:12 | 51.11872 | -113.99044 | 3559 ft | 103 kts | 1° |
| 2026-05-04 21:12 | 51.12302 | -113.99035 | 3556 ft | 31 kts | 360° |
| 2026-05-04 21:12 | 51.12506 | -113.99034 | 3561 ft | 29 kts | 0° |
| 2026-05-04 21:13 | 51.12700 | -113.99032 | 3562 ft | 27 kts | 0° |
| 2026-05-04 21:13 | 51.12857 | -113.99037 | 3560 ft | 19 kts | 356° |
| 2026-05-04 21:13 | 51.12980 | -113.99087 | 3562 ft | 18 kts | 335° |
| 2026-05-04 21:13 | 51.13033 | -113.99131 | 3561 ft | 7 kts | 331° |
| 2026-05-04 21:14 | 51.13081 | -113.99175 | 3562 ft | 12 kts | 330° |
| 2026-05-04 21:14 | 51.13157 | -113.99277 | 3562 ft | 15 kts | 288° |
| 2026-05-04 21:14 | 51.13163 | -113.99442 | 3565 ft | 15 kts | 268° |
| 2026-05-04 21:14 | 51.13112 | -113.99551 | 3563 ft | 14 kts | 181° |
| 2026-05-04 21:15 | 51.13017 | -113.99552 | 3561 ft | 13 kts | 180° |
| 2026-05-04 21:15 | 51.12943 | -113.99528 | 3564 ft | 13 kts | 141° |
| 2026-05-04 21:15 | 51.12876 | -113.99445 | 3561 ft | 13 kts | 174° |
| 2026-05-04 21:15 | 51.12861 | -113.99445 | 3560 ft | 0 kts | 178° |
| 2026-05-04 21:17 | 51.12827 | -113.99443 | 3563 ft | 11 kts | 178° |
| 2026-05-04 21:17 | 51.12722 | -113.99443 | 3565 ft | 16 kts | 181° |
| 2026-05-04 21:17 | 51.12622 | -113.99489 | 3561 ft | 16 kts | 243° |
| 2026-05-04 21:18 | 51.12617 | -113.99659 | 3565 ft | 15 kts | 271° |
| 2026-05-04 21:18 | 51.12619 | -113.99822 | 3565 ft | 14 kts | 268° |
| 2026-05-04 21:18 | 51.12616 | -113.99979 | 3565 ft | 14 kts | 269° |
| 2026-05-04 21:18 | 51.12617 | -114.00128 | 3565 ft | 13 kts | 270° |
| 2026-05-04 21:19 | 51.12616 | -114.00268 | 3565 ft | 13 kts | 269° |
| 2026-05-04 21:19 | 51.12616 | -114.00405 | 3565 ft | 12 kts | 270° |
| 2026-05-04 21:19 | 51.12616 | -114.00542 | 3565 ft | 12 kts | 270° |
| 2026-05-04 21:19 | 51.12615 | -114.00674 | 3565 ft | 12 kts | 270° |
| 2026-05-04 21:20 | 51.12616 | -114.00806 | 3565 ft | 12 kts | 270° |
| 2026-05-04 21:20 | 51.12615 | -114.00952 | 3565 ft | 14 kts | 268° |
| 2026-05-04 21:20 | 51.12612 | -114.01109 | 3565 ft | 15 kts | 264° |
| 2026-05-04 21:20 | 51.12604 | -114.01276 | 3565 ft | 15 kts | 269° |
| 2026-05-04 21:21 | 51.12604 | -114.01442 | 3565 ft | 15 kts | 271° |
| 2026-05-04 21:21 | 51.12603 | -114.01601 | 3565 ft | 14 kts | 271° |
| 2026-05-04 21:21 | 51.12605 | -114.01734 | 3565 ft | 7 kts | 271° |
| 2026-05-04 21:21 | 51.12637 | -114.01793 | 3562 ft | 8 kts | 350° |
| 2026-05-04 21:22 | 51.12699 | -114.01795 | 3562 ft | 9 kts | 0° |
| 2026-05-04 21:22 | 51.12767 | -114.01794 | 3564 ft | 10 kts | 0° |
| 2026-05-04 21:22 | 51.12843 | -114.01794 | 3560 ft | 11 kts | 360° |
| 2026-05-04 21:22 | 51.12926 | -114.01794 | 3561 ft | 12 kts | 360° |
| 2026-05-04 21:23 | 51.13014 | -114.01795 | 3560 ft | 13 kts | 360° |
| 2026-05-04 21:23 | 51.13101 | -114.01831 | 3562 ft | 14 kts | 331° |
| 2026-05-04 21:23 | 51.13197 | -114.01853 | 3563 ft | 14 kts | 0° |
| 2026-05-04 21:23 | 51.13297 | -114.01852 | 3559 ft | 14 kts | 0° |
| 2026-05-04 21:24 | 51.13364 | -114.01771 | 3561 ft | 11 kts | 70° |
| 2026-05-04 21:24 | 51.13357 | -114.01665 | 3557 ft | 8 kts | 116° |
| 2026-05-04 21:24 | 51.13323 | -114.01603 | 3560 ft | 1 kts | 132° |
| 2026-05-04 21:24 | 51.13320 | -114.01597 | 3556 ft | 1 kts | 131° |
| 2026-05-04 21:25 | 51.13315 | -114.01589 | 3557 ft | 2 kts | 131° |
| 2026-05-04 21:25 | 51.13310 | -114.01579 | 3559 ft | 0 kts | 130° |